Time,TemperatureF,DewpointF,PressureIn,WindDirection,WindDirectionDegrees,WindSpeedMPH,WindSpeedGustMPH,Humidity,HourlyPrecipIn,Conditions,Clouds,dailyrainin,SolarRadiationWatts/m^2,SoftwareType,DateUTC
2013-08-16 00:29:00,72.9,72.0,30.00,SSE,165,0.0,0.0,97,0.00,,,0.00,0,weatherlink.com 1.10,2013-08-16 04:29:00,
2013-08-16 00:44:00,72.9,72.0,30.01,SSE,165,0.0,0.0,97,0.00,,,0.00,0,weatherlink.com 1.10,2013-08-16 04:44:00,
2013-08-16 00:59:00,72.8,72.0,30.01,SSE,165,0.0,0.0,97,0.00,,,0.00,0,weatherlink.com 1.10,2013-08-16 04:59:00,
2013-08-16 01:14:00,72.8,72.0,30.01,SSE,165,0.0,0.0,97,0.00,,,0.00,0,weatherlink.com 1.10,2013-08-16 05:14:00,
2013-08-16 01:29:00,72.7,72.0,30.00,SSE,165,0.0,0.0,97,0.00,,,0.00,0,weatherlink.com 1.10,2013-08-16 05:29:00,
2013-08-16 01:44:00,72.6,72.0,30.00,SSE,165,0.0,0.0,97,0.00,,,0.00,0,weatherlink.com 1.10,2013-08-16 05:44:00,
2013-08-16 01:59:00,72.6,72.0,29.99,SSE,165,0.0,0.0,98,0.00,,,0.00,0,weatherlink.com 1.10,2013-08-16 05:59:00,
2013-08-16 02:14:00,72.5,72.0,29.99,SSE,165,0.0,0.0,97,0.00,,,0.00,0,weatherlink.com 1.10,2013-08-16 06:14:00,
2013-08-16 02:29:00,72.4,72.0,29.99,SSE,165,0.0,0.0,98,0.00,,,0.00,0,weatherlink.com 1.10,2013-08-16 06:29:00,
2013-08-16 02:44:00,72.4,72.0,29.98,SSE,165,0.0,0.0,98,0.00,,,0.00,0,weatherlink.com 1.10,2013-08-16 06:44:00,
2013-08-16 02:59:00,72.2,71.0,29.98,SSE,165,0.0,0.0,97,0.00,,,0.00,0,weatherlink.com 1.10,2013-08-16 06:59:00,
2013-08-16 03:14:00,72.1,72.0,29.98,SSE,165,0.0,0.0,98,0.00,,,0.00,0,weatherlink.com 1.10,2013-08-16 07:14:00,
2013-08-16 03:29:00,72.2,72.0,29.98,SSE,165,0.0,0.0,98,0.00,,,0.00,0,weatherlink.com 1.10,2013-08-16 07:29:00,
2013-08-16 03:44:00,72.2,72.0,29.98,SSE,165,0.0,0.0,98,0.00,,,0.00,0,weatherlink.com 1.10,2013-08-16 07:44:00,
2013-08-16 03:59:00,72.0,71.0,29.99,SSE,165,0.0,0.0,98,0.00,,,0.00,0,weatherlink.com 1.10,2013-08-16 07:59:00,
2013-08-16 04:14:00,71.9,71.0,29.99,SSE,165,0.0,0.0,98,0.00,,,0.00,0,weatherlink.com 1.10,2013-08-16 08:14:00,
2013-08-16 04:29:00,71.9,71.0,29.99,SSE,165,0.0,0.0,98,0.00,,,0.00,0,weatherlink.com 1.10,2013-08-16 08:29:00,
2013-08-16 04:44:00,71.9,71.0,29.98,SSE,165,0.0,0.0,98,0.00,,,0.00,0,weatherlink.com 1.10,2013-08-16 08:44:00,
2013-08-16 04:59:00,71.7,71.0,29.98,SSE,165,0.0,0.0,98,0.00,,,0.00,0,weatherlink.com 1.10,2013-08-16 08:59:00,
2013-08-16 05:14:00,71.5,71.0,29.98,SSE,165,0.0,0.0,98,0.01,,,0.01,0,weatherlink.com 1.10,2013-08-16 09:14:00,
2013-08-16 05:29:00,71.6,71.0,29.99,SSE,165,0.0,0.0,98,0.01,,,0.01,0,weatherlink.com 1.10,2013-08-16 09:29:00,
2013-08-16 05:44:00,71.6,71.0,29.99,SSE,165,0.0,0.0,98,0.01,,,0.01,0,weatherlink.com 1.10,2013-08-16 09:44:00,
2013-08-16 05:59:00,71.7,71.0,29.99,SSE,165,0.0,0.0,98,0.01,,,0.01,0,weatherlink.com 1.10,2013-08-16 09:59:00,
2013-08-16 06:14:00,71.7,71.0,30.00,SSE,165,0.0,2.0,98,0.00,,,0.01,0,weatherlink.com 1.10,2013-08-16 10:14:00,
2013-08-16 06:29:00,71.7,71.0,30.00,SSE,165,0.0,0.0,98,0.00,,,0.01,0,weatherlink.com 1.10,2013-08-16 10:29:00,
2013-08-16 06:44:00,71.8,71.0,30.01,SSE,165,0.0,0.0,98,0.00,,,0.01,0,weatherlink.com 1.10,2013-08-16 10:44:00,
2013-08-16 06:59:00,71.9,71.0,30.01,SSE,165,0.0,0.0,98,0.00,,,0.01,5,weatherlink.com 1.10,2013-08-16 10:59:00,
2013-08-16 07:14:00,72.1,72.0,30.01,SSE,165,0.0,0.0,98,0.00,,,0.01,14,weatherlink.com 1.10,2013-08-16 11:14:00,
2013-08-16 07:29:00,72.2,72.0,30.01,SSE,165,0.0,0.0,98,0.00,,,0.01,21,weatherlink.com 1.10,2013-08-16 11:29:00,
2013-08-16 07:44:00,72.6,72.0,30.02,SSE,165,0.0,0.0,98,0.00,,,0.01,35,weatherlink.com 1.10,2013-08-16 11:44:00,
2013-08-16 07:59:00,73.1,73.0,30.02,SSE,165,0.0,0.0,98,0.00,,,0.01,76,weatherlink.com 1.10,2013-08-16 11:59:00,
2013-08-16 08:15:00,73.7,73.0,30.02,SSE,165,2.0,2.0,98,0.00,,,0.01,81,weatherlink.com 1.10,2013-08-16 12:15:00,
2013-08-16 08:30:00,74.2,74.0,30.02,SSE,165,0.0,3.0,98,0.00,,,0.01,118,weatherlink.com 1.10,2013-08-16 12:30:00,
2013-08-16 08:45:00,75.0,74.0,30.02,SSE,165,0.0,1.0,98,0.00,,,0.01,134,weatherlink.com 1.10,2013-08-16 12:45:00,
2013-08-16 09:00:00,75.6,75.0,30.02,SSE,165,4.0,5.0,97,0.00,,,0.01,179,weatherlink.com 1.10,2013-08-16 13:00:00,
2013-08-16 09:15:00,76.3,75.0,30.02,SSE,165,0.0,5.0,95,0.00,,,0.01,181,weatherlink.com 1.10,2013-08-16 13:15:00,
2013-08-16 09:30:00,77.2,76.0,30.03,SSE,165,0.0,6.0,95,0.00,,,0.01,202,weatherlink.com 1.10,2013-08-16 13:30:00,
2013-08-16 09:45:00,77.9,76.0,30.04,SSE,165,5.0,7.0,92,0.00,,,0.01,241,weatherlink.com 1.10,2013-08-16 13:45:00,
2013-08-16 10:00:00,78.6,76.0,30.04,WSW,251,2.0,7.0,90,0.00,,,0.01,269,weatherlink.com 1.10,2013-08-16 14:00:00,
2013-08-16 10:15:00,79.3,76.0,30.04,West,269,4.0,7.0,89,0.00,,,0.01,288,weatherlink.com 1.10,2013-08-16 14:15:00,
2013-08-16 10:30:00,80.2,77.0,30.04,West,264,0.0,7.0,89,0.00,,,0.01,466,weatherlink.com 1.10,2013-08-16 14:30:00,
2013-08-16 10:45:00,81.6,76.0,30.04,West,265,3.0,11.0,83,0.00,,,0.01,373,weatherlink.com 1.10,2013-08-16 14:45:00,
2013-08-16 11:00:00,81.6,77.0,30.04,West,275,0.0,9.0,85,0.00,,,0.01,197,weatherlink.com 1.10,2013-08-16 15:00:00,
2013-08-16 11:15:00,81.1,75.0,30.04,WSW,244,3.0,11.0,82,0.00,,,0.01,146,weatherlink.com 1.10,2013-08-16 15:15:00,
2013-08-16 11:30:00,80.9,76.0,30.03,NW,305,0.0,7.0,85,0.00,,,0.01,272,weatherlink.com 1.10,2013-08-16 15:30:00,
2013-08-16 11:45:00,81.9,76.0,30.02,NNW,344,4.0,10.0,83,0.00,,,0.01,469,weatherlink.com 1.10,2013-08-16 15:45:00,
2013-08-16 12:00:00,82.9,76.0,30.01,NW,323,4.0,9.0,79,0.00,,,0.01,494,weatherlink.com 1.10,2013-08-16 16:00:00,
2013-08-16 12:15:00,83.8,76.0,30.01,NNW,332,3.0,10.0,77,0.00,,,0.01,531,weatherlink.com 1.10,2013-08-16 16:15:00,
2013-08-16 12:45:00,84.5,74.0,30.01,WSW,238,2.0,9.0,71,0.00,,,0.01,348,weatherlink.com 1.10,2013-08-16 16:45:00,
2013-08-16 13:00:00,83.8,73.0,30.01,West,275,7.0,8.0,70,0.00,,,0.01,371,weatherlink.com 1.10,2013-08-16 17:00:00,
2013-08-16 13:15:00,84.3,74.0,30.01,SSW,211,5.0,6.0,72,0.00,,,0.01,638,weatherlink.com 1.10,2013-08-16 17:15:00,
2013-08-16 13:30:00,86.5,76.0,30.00,South,172,5.0,6.0,71,0.00,,,0.01,900,weatherlink.com 1.10,2013-08-16 17:30:00,
2013-08-16 13:46:00,87.6,76.0,30.00,West,277,3.0,10.0,68,0.00,,,0.01,635,weatherlink.com 1.10,2013-08-16 17:46:00,
2013-08-16 14:01:00,88.0,73.0,29.99,SW,219,0.0,10.0,62,0.00,,,0.01,570,weatherlink.com 1.10,2013-08-16 18:01:00,
2013-08-16 14:16:00,87.9,74.0,29.99,SW,223,4.0,10.0,63,0.00,,,0.01,327,weatherlink.com 1.10,2013-08-16 18:16:00,
2013-08-16 14:31:00,86.8,73.0,29.99,South,178,3.0,10.0,63,0.00,,,0.01,334,weatherlink.com 1.10,2013-08-16 18:31:00,
2013-08-16 15:01:00,87.8,74.0,29.98,SW,232,1.0,8.0,63,0.00,,,0.01,998,weatherlink.com 1.10,2013-08-16 19:01:00,
2013-08-16 15:31:00,90.2,75.0,29.97,SW,216,3.0,5.0,61,0.00,,,0.01,548,weatherlink.com 1.10,2013-08-16 19:31:00,
2013-08-16 15:46:00,89.5,74.0,29.96,SSW,207,0.0,8.0,61,0.00,,,0.01,404,weatherlink.com 1.10,2013-08-16 19:46:00,
2013-08-16 16:01:00,88.7,73.0,29.96,WSW,245,2.0,8.0,60,0.00,,,0.01,378,weatherlink.com 1.10,2013-08-16 20:01:00,
2013-08-16 16:16:00,88.7,74.0,29.96,SSW,205,0.0,5.0,62,0.00,,,0.01,388,weatherlink.com 1.10,2013-08-16 20:16:00,
2013-08-16 16:31:00,88.8,75.0,29.95,SSE,159,2.0,6.0,64,0.00,,,0.01,287,weatherlink.com 1.10,2013-08-16 20:31:00,
2013-08-16 16:46:00,87.9,75.0,29.96,SSW,194,0.0,5.0,66,0.00,,,0.01,81,weatherlink.com 1.10,2013-08-16 20:46:00,
2013-08-16 17:01:00,86.9,76.0,29.96,SSW,194,0.0,2.0,71,0.00,,,0.01,32,weatherlink.com 1.10,2013-08-16 21:01:00,
2013-08-16 17:16:00,82.6,74.0,30.00,SSW,206,14.0,21.0,76,0.03,,,0.04,0,weatherlink.com 1.10,2013-08-16 21:16:00,
2013-08-16 17:31:00,75.3,72.0,30.00,South,189,3.0,15.0,89,0.38,,,0.39,23,weatherlink.com 1.10,2013-08-16 21:31:00,
2013-08-16 17:46:00,74.5,73.0,29.99,SE,141,0.0,4.0,95,0.40,,,0.41,33,weatherlink.com 1.10,2013-08-16 21:46:00,
2013-08-16 18:01:00,74.8,73.0,30.00,SE,141,0.0,0.0,95,0.40,,,0.41,33,weatherlink.com 1.10,2013-08-16 22:01:00,
2013-08-16 18:16:00,74.9,74.0,30.00,SE,141,0.0,1.0,96,0.36,,,0.41,39,weatherlink.com 1.10,2013-08-16 22:16:00,
2013-08-16 18:31:00,74.9,74.0,30.00,SE,141,0.0,3.0,96,0.01,,,0.41,32,weatherlink.com 1.10,2013-08-16 22:31:00,
2013-08-16 18:46:00,74.9,74.0,30.00,SE,141,0.0,1.0,96,0.00,,,0.41,42,weatherlink.com 1.10,2013-08-16 22:46:00,
2013-08-16 19:01:00,74.9,74.0,30.00,SE,141,0.0,0.0,96,0.00,,,0.41,37,weatherlink.com 1.10,2013-08-16 23:01:00,
2013-08-16 19:16:00,75.2,74.0,30.00,SE,141,0.0,0.0,97,0.00,,,0.41,23,weatherlink.com 1.10,2013-08-16 23:16:00,
2013-08-16 19:31:00,75.5,75.0,30.01,SE,141,0.0,0.0,97,0.00,,,0.41,12,weatherlink.com 1.10,2013-08-16 23:31:00,
2013-08-16 19:46:00,75.5,75.0,30.01,SE,141,0.0,0.0,97,0.00,,,0.41,7,weatherlink.com 1.10,2013-08-16 23:46:00,
2013-08-16 20:16:00,75.5,75.0,30.02,SE,141,0.0,0.0,97,0.00,,,0.41,0,weatherlink.com 1.10,2013-08-17 00:16:00,
2013-08-16 20:31:00,75.6,75.0,30.03,SE,141,0.0,0.0,97,0.00,,,0.41,0,weatherlink.com 1.10,2013-08-17 00:31:00,
2013-08-16 20:46:00,75.7,75.0,30.04,SE,141,0.0,3.0,97,0.00,,,0.41,0,weatherlink.com 1.10,2013-08-17 00:46:00,
2013-08-16 21:01:00,75.5,74.0,30.04,SE,141,0.0,0.0,96,0.00,,,0.41,0,weatherlink.com 1.10,2013-08-17 01:01:00,
2013-08-16 21:16:00,75.5,75.0,30.05,SE,141,0.0,0.0,97,0.00,,,0.41,0,weatherlink.com 1.10,2013-08-17 01:16:00,
2013-08-16 21:31:00,75.6,75.0,30.06,SE,141,0.0,0.0,97,0.00,,,0.41,0,weatherlink.com 1.10,2013-08-17 01:31:00,
2013-08-16 21:46:00,75.6,75.0,30.06,SE,141,0.0,0.0,97,0.00,,,0.41,0,weatherlink.com 1.10,2013-08-17 01:46:00,
2013-08-16 22:01:00,75.6,75.0,30.06,SE,141,0.0,0.0,97,0.00,,,0.41,0,weatherlink.com 1.10,2013-08-17 02:01:00,
2013-08-16 22:16:00,75.6,75.0,30.06,SE,141,0.0,0.0,97,0.00,,,0.41,0,weatherlink.com 1.10,2013-08-17 02:16:00,
2013-08-16 22:31:00,75.7,75.0,30.06,SE,141,0.0,0.0,97,0.00,,,0.41,0,weatherlink.com 1.10,2013-08-17 02:31:00,
2013-08-16 22:46:00,75.6,75.0,30.06,SE,141,0.0,0.0,97,0.00,,,0.41,0,weatherlink.com 1.10,2013-08-17 02:46:00,
2013-08-16 23:01:00,75.6,75.0,30.06,SE,141,0.0,0.0,97,0.00,,,0.41,0,weatherlink.com 1.10,2013-08-17 03:01:00,
2013-08-16 23:16:00,75.3,74.0,30.07,SE,141,0.0,0.0,97,0.00,,,0.41,0,weatherlink.com 1.10,2013-08-17 03:16:00,
2013-08-16 23:31:00,75.3,74.0,30.06,SE,141,0.0,0.0,97,0.00,,,0.41,0,weatherlink.com 1.10,2013-08-17 03:31:00,
2013-08-16 23:46:00,75.3,75.0,30.06,SE,141,0.0,0.0,98,0.00,,,0.41,0,weatherlink.com 1.10,2013-08-17 03:46:00,